Airfield :
LOGIN :

Register | Disclaimer

   EN    FR    IT 

 










Legend :    VFR   Marginal VFR   IFR   Intensive IFR   Very Intensive IFR
Visi :
Ceiling :
>= 8 km
>= 3000ft
5 to 8 km
1000 to 3000 ft
1500m to 5 km
500 to 1000 ft
800 to 1500m
200 to 500 ft
< 800m
< 200 ft
Symbols :   Thunderstorms  Fog  Heavy snow  Heavy precipitations  Wind > 20 kt
SIGMETs :     Misc.  Thunderstorms  Icing  Turbulence  Mountain Waves  Volcanic Ashes







- Airport Elevation : 27 ft
- IATA code : PMI


LEPA - Palma de Mallorca

CURRENT METAR :
  • 210930Z VRB02KT 9999 FEW020 29/15 Q1020 NOSIG

EXPIRED METARs :
  • 210900Z 07003KT 9999 FEW020 29/15 Q1020 NOSIG
  • 210830Z 07007KT 030V110 9999 FEW020 28/15 Q1020 NOSIG
  • 210800Z 36001KT 9999 FEW020 27/17 Q1020 NOSIG
  • 210730Z 02001KT 9999 FEW020 26/18 Q1020 NOSIG
  • 210700Z 00000KT 9999 FEW020 24/18 Q1020 NOSIG

TAF TAF LEPA
Valid from the 21 at 06:00 until the 22 at 06:00 UTC


210500Z 2106/2206 VRB03KT 9999 FEW025 TX32/2112Z TN18/2205Z
BECMG 2110/2113 22010KT
BECMG 2119/2121 VRB03KT
No reported NOTAMs for that airfield.



MET'MAP, your aeronautical weather chart ! - Copyright ORBIFLY December 2007 - Disclaimer

ORBIFLY MET'MAP TEAM :

Programming & Development : Alexandra Zaïnal
Concept & Development : Baudouin d'Aumeries
Co-Development & Prog : Marc-Olivier Méhu
Technical & hardware support : Manuel Goepfert

Contact : metmap@orbifly.com




SOURCES & CREDITS :

   NOAA